Road Town, British Virgin Islands

8:04 AM AST on February 25, 2017 (GMT -0400)
Nanny Cay Marina Village | | Change Station

Elev 23 ft 18.40 °N, 64.63 °W | Updated 52 seconds ago

Partly Cloudy
Partly Cloudy
71.1 °F
Feels Like 75 °F
N
0.0
Wind Variable Wind from WNW
Gusts 0.0 mph

Today
High -- | Low -- °F
--% Chance of Precip.
Yesterday
High -- | Low -- °F
Precip. -- in
Pressure 30.00 in
Visibility 10.0 miles
Clouds Few 3000 ft
Heat Index 75 °F
Dew Point 59 °F
Humidity 65%
Rainfall 0.00 in
Snow Depth Not available.
6:39 AM 6:23 PM
Waning Crescent, 2% visible
METAR TIST 251153Z 08006KT 10SM FEW030 26/22 A2999 RMK AO2 SLP157 T02560217 10256 20222 53018
Pressure 30.00 in
Visibility 10.0 miles
Clouds Few 3000 ft
Heat Index 75 °F
Dew Point 59 °F
Humidity 65%
Rainfall 0.00 in
Snow Depth Not available.
6:39 AM 6:23 PM
Waning Crescent, 2% visible
METAR TIST 251153Z 08006KT 10SM FEW030 26/22 A2999 RMK AO2 SLP157 T02560217 10256 20222 53018

Get Your Daily Forecast Email!

Thanks for signing up!

Be on the lookout for a verification email in your inbox.

You'll start receiving the daily forecast at 8 AM.

×

10-Day Weather Forecast

No radar image for this location.
×

Almanac

Astronomy

Feb. 25, 2017 Rise Set
Actual Time
Civil Twilight
Nautical Twilight
Astronomical Twilight
Moon
Length of Visible Light
Length of Day
Tomorrow will be .
, % of the Moon is Illuminated

Today's Extremes

Country Highs Country Lows

Community

WunderPhotos

Upload Photos

1,962,540 photos uploaded!

WunderBlog® & News

Nearby

Air Quality

  Air Quality AQ Index Pollutant
Not available.

Snow Depth

Station Depth Elevation

Earthquake Activity

City Distance Mag. Time & Date
Minimum magnitude displayed is 2.5.

Coastal Water Temperatures

Place Temperature

Stations

Nearby Weather Stations

Station Location Temp. Windchill Dew Point Humidity Wind Precip. Elev Updated Type